Alexander, Maine
Current Conditions -  °F | °C
As of 2:55 AM on Thursday 23 Oct 2014 (Local Time) from KBHB Reporting Station
Overcast Overcast  
Wind Chill: 42°   Ceiling: 800
Heat Index: 48°   Visibility: 10mi
Dew Point: 48°   Wind: 15mph
Humidity: 100%   Direction: 30°NNE
Pressure: 29.97"   Gusts: 18mph
Location:  45.0659°N, 67.4987°W
Report Text: KBHB 230655Z AUTO 03013G16KT 10SM OVC008 09/09 A2997 RMK AO1 P0001
Loading
Personal Weather Stations






























Interactive Weather Map
Tropical Storm Tracking
New forecast layout! Learn more

10-Day Weather Forecast

Advertisements
Track Severe Weather on mobile